Time;durP1;ratioP1;P1;durP2;ratioP2;P2;SDS_P1;SDS_P2;PMS_P1;PMS_P2;Temp;Humidity;BMP_temperature;BMP_pressure;BME280_temperature;BME280_humidity;BME280_pressure;Samples;Min_cycle;Max_cycle;Signal;HPM_P1;HPM_P2
2022/06/30 00:01:47;122958.00;0.41;213.18;0.00;0.00;0.62;;;;;23.80;1.00;;;;;;2272098;61;1706;-86
2022/06/30 00:04:14;206114.00;0.69;356.45;23807.00;0.08;41.86;;;;;23.70;1.00;;;;;;2272249;61;1148;-87
2022/06/30 00:06:41;98292.00;0.33;170.62;0.00;0.00;0.62;;;;;23.70;1.00;;;;;;2272099;61;1527;-86
2022/06/30 00:09:09;310321.00;1.03;535.66;24169.00;0.08;42.49;;;;;23.50;1.00;;;;;;2272138;61;1287;-86
2022/06/30 00:11:36;0.00;0.00;0.62;0.00;0.00;0.62;;;;;23.50;1.00;;;;;;2272114;61;1107;-86
2022/06/30 00:14:05;151546.00;0.51;262.47;8497.00;0.03;15.35;;;;;23.60;1.00;;;;;;2272230;61;1049;-85
2022/06/30 00:16:32;46445.00;0.15;81.04;0.00;0.00;0.62;;;;;23.60;1.00;;;;;;2272154;61;2312;-87
2022/06/30 00:18:59;7465.00;0.02;13.56;0.00;0.00;0.62;;;;;23.70;1.00;;;;;;2272010;61;1576;-86
2022/06/30 00:21:26;36399.00;0.12;63.66;0.00;0.00;0.62;;;;;23.90;1.00;;;;;;2272143;61;1426;-87
2022/06/30 00:23:53;186351.00;0.62;322.43;54151.00;0.18;94.36;;;;;24.00;1.00;;;;;;2272120;61;2003;-85
2022/06/30 00:26:20;193169.00;0.64;334.16;14195.00;0.05;25.22;;;;;23.80;1.00;;;;;;2272053;61;1520;-86
2022/06/30 00:28:49;40963.00;0.14;71.55;0.00;0.00;0.62;;;;;23.70;1.00;;;;;;2272138;61;1434;-87
2022/06/30 00:31:18;120432.00;0.40;208.83;0.00;0.00;0.62;;;;;23.80;1.00;;;;;;2272075;61;1115;-89
2022/06/30 00:33:57;23208.00;0.08;40.82;0.00;0.00;0.62;;;;;23.90;1.00;;;;;;2272104;61;1625;-89
2022/06/30 00:36:24;522656.00;1.74;900.84;73032.00;0.24;127.00;;;;;24.10;1.00;;;;;;2296565;40;3655;-88
2022/06/30 00:38:53;223578.00;0.75;386.50;69877.00;0.23;121.55;;;;;24.00;1.00;;;;;;2274493;61;1605;-88
2022/06/30 00:41:20;214763.00;0.72;371.33;67682.00;0.23;117.75;;;;;23.70;1.00;;;;;;2272097;61;1105;-87
2022/06/30 00:43:48;310470.00;1.03;535.92;61972.00;0.21;107.89;;;;;23.50;1.00;;;;;;2272593;61;1079;-88
2022/06/30 00:46:15;323580.00;1.08;558.45;100251.00;0.33;174.01;;;;;23.40;1.00;;;;;;2272708;61;1653;-89
2022/06/30 00:48:44;537928.00;1.79;927.15;161696.00;0.54;279.96;;;;;23.40;1.00;;;;;;2272703;61;1297;-85
2022/06/30 00:51:11;408091.00;1.36;703.71;70483.00;0.23;122.60;;;;;23.60;1.00;;;;;;2272784;61;976;-87
2022/06/30 00:53:41;266404.00;0.89;460.16;71550.00;0.24;124.44;;;;;23.30;1.00;;;;;;2272811;61;1149;-86
2022/06/30 00:56:10;357216.00;1.19;616.26;84511.00;0.28;146.83;;;;;23.20;1.00;;;;;;2272767;61;1363;-89
2022/06/30 00:58:40;194550.00;0.65;336.54;62712.00;0.21;109.16;;;;;23.10;1.00;;;;;;2272368;61;2364;-87
2022/06/30 01:01:08;196941.00;0.66;340.66;66977.00;0.22;116.54;;;;;23.30;1.00;;;;;;2272580;61;1058;-88
2022/06/30 01:03:35;328488.00;1.09;566.89;86079.00;0.29;149.54;;;;;23.30;1.00;;;;;;2272740;61;1140;-86
2022/06/30 01:06:06;343464.00;1.14;592.63;71112.00;0.24;123.68;;;;;23.50;1.00;;;;;;2272759;61;1000;-87
2022/06/30 01:08:34;120506304.00;401.69;70890600.00;70135.00;0.23;121.99;;;;;23.50;1.00;;;;;;2272887;61;1454;-89
2022/06/30 01:13:48;284136.00;0.95;490.65;94556.00;0.32;164.17;;;;;23.20;1.00;;;;;;2272993;61;687;-88
2022/06/30 01:16:15;70520.00;0.24;122.66;0.00;0.00;0.62;;;;;23.10;1.00;;;;;;2272852;61;1041;-89
2022/06/30 01:18:42;268307.00;0.89;463.43;0.00;0.00;0.62;;;;;23.00;1.00;;;;;;2272870;61;2002;-89
2022/06/30 01:21:12;0.00;0.00;0.62;0.00;0.00;0.62;;;;;23.10;1.00;;;;;;2272800;61;1092;-88
2022/06/30 01:23:41;100696.00;0.34;174.77;0.00;0.00;0.62;;;;;23.00;1.00;;;;;;2272912;61;1109;-87
2022/06/30 01:26:08;53156.00;0.18;92.64;0.00;0.00;0.62;;;;;22.90;1.00;;;;;;2272907;61;1102;-88
2022/06/30 01:28:35;33701.00;0.11;58.99;0.00;0.00;0.62;;;;;23.00;1.00;;;;;;2272744;61;1269;-89
2022/06/30 01:31:02;0.00;0.00;0.62;0.00;0.00;0.62;;;;;23.00;1.00;;;;;;2272784;61;1094;-89
2022/06/30 01:33:30;29093.00;0.10;51.01;0.00;0.00;0.62;;;;;23.00;1.00;;;;;;2272805;61;1110;-87
2022/06/30 01:35:57;17981.00;0.06;31.77;0.00;0.00;0.62;;;;;23.10;1.00;;;;;;2272634;61;1682;-86
2022/06/30 01:38:24;43859.00;0.15;76.56;0.00;0.00;0.62;;;;;23.10;1.00;;;;;;2272725;61;1996;-90
2022/06/30 01:40:52;375000.00;1.25;646.83;0.00;0.00;0.62;;;;;23.20;1.00;;;;;;2272805;61;1097;-87
2022/06/30 01:43:19;0.00;0.00;0.62;0.00;0.00;0.62;;;;;23.30;1.00;;;;;;2272763;61;1095;-88
2022/06/30 01:48:16;144957.00;0.48;251.12;0.00;0.00;0.62;;;;;23.40;1.00;;;;;;2274339;61;1407;-86
2022/06/30 01:50:43;0.00;0.00;0.62;0.00;0.00;0.62;;;;;23.50;1.00;;;;;;2272625;61;1455;-87
2022/06/30 01:53:10;204310.00;0.68;353.34;0.00;0.00;0.62;;;;;23.50;1.00;;;;;;2272739;61;1107;-87
2022/06/30 01:55:37;0.00;0.00;0.62;0.00;0.00;0.62;;;;;23.40;1.00;;;;;;2272514;61;1116;-88
2022/06/30 01:58:06;229080.00;0.76;395.97;14791.00;0.05;26.25;;;;;23.40;1.00;;;;;;2272294;61;1927;-85
2022/06/30 02:00:33;183660.00;0.61;317.79;52617.00;0.18;91.71;;;;;23.40;1.00;;;;;;2272684;61;1135;-86
2022/06/30 02:03:00;131323.00;0.44;227.61;0.00;0.00;0.62;;;;;23.50;1.00;;;;;;2272782;61;1133;-86
2022/06/30 02:05:27;77896.00;0.26;135.40;9841.00;0.03;17.67;;;;;23.20;1.00;;;;;;2272737;61;984;-87
2022/06/30 02:08:03;77538.00;0.26;134.78;0.00;0.00;0.62;;;;;23.10;1.00;;;;;;2272499;61;1035;-87
2022/06/30 02:10:30;65446.00;0.22;113.89;0.00;0.00;0.62;;;;;23.40;1.00;;;;;;2272579;61;1728;-86
2022/06/30 02:12:56;34886.00;0.12;61.04;0.00;0.00;0.62;;;;;23.20;1.00;;;;;;2272688;61;1060;-87
2022/06/30 02:15:32;63951.00;0.21;111.31;0.00;0.00;0.62;;;;;22.80;1.00;;;;;;2272627;61;1079;-86
2022/06/30 02:18:00;0.00;0.00;0.62;0.00;0.00;0.62;;;;;22.70;1.00;;;;;;2272615;61;1998;-88
2022/06/30 02:20:27;157501.00;0.53;272.73;0.00;0.00;0.62;;;;;22.80;1.00;;;;;;2272588;61;1564;-86
2022/06/30 02:22:57;46935.00;0.16;81.89;0.00;0.00;0.62;;;;;22.80;1.00;;;;;;2272444;61;1075;-86
2022/06/30 02:25:24;172102.00;0.57;297.89;30078.00;0.10;52.72;;;;;22.90;1.00;;;;;;2272618;61;1018;-86
2022/06/30 02:27:51;21405.00;0.07;37.70;0.00;0.00;0.62;;;;;22.70;1.00;;;;;;2272616;61;1098;-87
2022/06/30 02:30:19;115601.00;0.39;200.49;0.00;0.00;0.62;;;;;22.80;1.00;;;;;;2272606;61;1303;-86
2022/06/30 02:32:48;11551.00;0.04;20.64;0.00;0.00;0.62;;;;;22.90;1.00;;;;;;2272576;61;989;-87
2022/06/30 02:35:15;104357.00;0.35;181.09;0.00;0.00;0.62;;;;;22.80;1.00;;;;;;2272580;61;1480;-85
2022/06/30 02:37:43;69086.00;0.23;120.18;0.00;0.00;0.62;;;;;22.70;1.00;;;;;;2272601;61;1987;-86
2022/06/30 02:40:10;462331.00;1.54;796.99;0.00;0.00;0.62;;;;;22.90;1.00;;;;;;2272526;61;1398;-87
2022/06/30 02:42:38;38298.00;0.13;66.94;0.00;0.00;0.62;;;;;22.70;1.00;;;;;;2272688;61;1124;-88
2022/06/30 02:45:05;365893.00;1.22;631.18;0.00;0.00;0.62;;;;;22.70;1.00;;;;;;2272643;61;1115;-88
2022/06/30 02:47:34;83567.00;0.28;145.20;0.00;0.00;0.62;;;;;22.50;1.00;;;;;;2272582;61;1009;-89
2022/06/30 02:50:04;122115.00;0.41;211.73;0.00;0.00;0.62;;;;;22.60;1.00;;;;;;2272529;61;1458;-87
2022/06/30 02:52:32;37241.00;0.12;65.11;0.00;0.00;0.62;;;;;22.50;1.00;;;;;;2272591;61;919;-87
2022/06/30 02:54:59;116613.00;0.39;202.24;19542.00;0.07;34.48;;;;;22.20;1.00;;;;;;2272548;61;1057;-88
2022/06/30 02:57:26;9114.00;0.03;16.41;0.00;0.00;0.62;;;;;22.20;1.00;;;;;;2272442;61;2001;-87
2022/06/30 02:59:54;262859.00;0.88;454.06;0.00;0.00;0.62;;;;;22.00;1.80;;;;;;2272543;61;1325;-89
2022/06/30 03:02:20;131939.00;0.44;228.67;0.00;0.00;0.62;;;;;21.90;1.80;;;;;;2272433;61;1633;-89
2022/06/30 03:04:48;292283.00;0.97;504.65;0.00;0.00;0.62;;;;;21.80;2.30;;;;;;2272440;61;1749;-88
2022/06/30 03:07:16;20336.00;0.07;35.85;0.00;0.00;0.62;;;;;21.70;2.50;;;;;;2272497;61;1099;-88
2022/06/30 03:09:43;53651.00;0.18;93.50;0.00;0.00;0.62;;;;;21.90;1.80;;;;;;2272492;61;1359;-88
2022/06/30 03:12:11;183232.00;0.61;317.06;43375.00;0.14;75.73;;;;;22.00;1.80;;;;;;2272504;61;1067;-87
2022/06/30 03:14:38;240142.00;0.80;415.00;4876.00;0.02;9.07;;;;;21.90;1.70;;;;;;2272417;61;1543;-86
2022/06/30 03:17:05;32245.00;0.11;56.47;0.00;0.00;0.62;;;;;22.00;1.80;;;;;;2272536;61;1020;-87
2022/06/30 03:19:32;211644.00;0.71;365.96;43241.00;0.14;75.50;;;;;22.10;1.20;;;;;;2272338;61;2001;-88
2022/06/30 03:22:00;56518.00;0.19;98.46;0.00;0.00;0.62;;;;;22.20;1.00;;;;;;2272409;61;1163;-86
2022/06/30 03:24:28;159007.00;0.53;275.33;0.00;0.00;0.62;;;;;22.30;1.00;;;;;;2272334;61;1738;-88
2022/06/30 03:26:55;665.00;0.00;1.77;0.00;0.00;0.62;;;;;22.30;1.00;;;;;;2272456;61;934;-87
2022/06/30 03:29:22;59629.00;0.20;103.84;0.00;0.00;0.62;;;;;22.40;1.00;;;;;;2272377;61;1306;-87
2022/06/30 03:31:49;153900.00;0.51;266.53;20919.00;0.07;36.86;;;;;22.40;1.00;;;;;;2272382;61;2016;-89
2022/06/30 03:34:16;10939.00;0.04;19.58;0.00;0.00;0.62;;;;;22.30;1.00;;;;;;2272190;61;1128;-90
2022/06/30 03:36:42;105346.00;0.35;182.80;8424.00;0.03;15.22;;;;;22.20;1.00;;;;;;2272208;61;942;-87
2022/06/30 03:39:10;57198.00;0.19;99.63;0.00;0.00;0.62;;;;;21.90;1.00;;;;;;2272285;61;2281;-86
2022/06/30 03:41:38;151999.00;0.51;263.25;0.00;0.00;0.62;;;;;21.90;1.00;;;;;;2272440;61;1051;-87
2022/06/30 03:44:05;201300.00;0.67;348.16;0.00;0.00;0.62;;;;;22.00;1.20;;;;;;2272291;61;1685;-87
2022/06/30 03:46:32;112748.00;0.38;195.57;0.00;0.00;0.62;;;;;22.20;1.00;;;;;;2272318;61;1730;-89
2022/06/30 03:49:00;102457.00;0.34;177.81;36214.00;0.12;63.34;;;;;22.40;1.00;;;;;;2272298;61;1442;-87
2022/06/30 03:51:27;457639.00;1.53;788.92;76212.00;0.25;132.49;;;;;22.60;1.00;;;;;;2272374;61;920;-87
2022/06/30 03:53:56;219780.00;0.73;379.97;0.00;0.00;0.62;;;;;22.60;1.00;;;;;;2272252;61;1114;-86
2022/06/30 03:56:23;0.00;0.00;0.62;0.00;0.00;0.62;;;;;22.50;1.00;;;;;;2272299;61;1223;-88
2022/06/30 03:58:51;0.00;0.00;0.62;0.00;0.00;0.62;;;;;22.60;1.00;;;;;;2272257;61;1915;-87
2022/06/30 04:01:18;228573.00;0.76;395.09;25073.00;0.08;44.05;;;;;22.70;1.00;;;;;;2272277;61;1118;-87
2022/06/30 04:03:45;81786.00;0.27;142.12;0.00;0.00;0.62;;;;;22.70;1.00;;;;;;2272232;61;2096;-85
2022/06/30 04:06:12;0.00;0.00;0.62;0.00;0.00;0.62;;;;;22.60;1.00;;;;;;2272308;61;1119;-88
2022/06/30 04:08:39;28316.00;0.09;49.67;0.00;0.00;0.62;;;;;22.80;1.00;;;;;;2272214;61;1371;-88
2022/06/30 04:11:06;173551.00;0.58;300.38;53454.00;0.18;93.16;;;;;22.80;1.00;;;;;;2272255;61;1201;-89
2022/06/30 04:13:34;0.00;0.00;0.62;0.00;0.00;0.62;;;;;22.70;1.00;;;;;;2272256;61;1161;-89
2022/06/30 04:16:02;164348.00;0.55;284.53;0.00;0.00;0.62;;;;;22.80;1.00;;;;;;2272194;61;1107;-89
2022/06/30 04:18:29;362159.00;1.21;624.76;63504.00;0.21;110.53;;;;;22.80;1.00;;;;;;2272579;61;1913;-86
2022/06/30 04:20:56;0.00;0.00;0.62;0.00;0.00;0.62;;;;;22.70;1.00;;;;;;2272965;61;1537;-85
2022/06/30 04:23:23;16145.00;0.05;28.59;0.00;0.00;0.62;;;;;22.90;1.00;;;;;;2272876;61;1114;-87
2022/06/30 04:25:50;194246.00;0.65;336.02;0.00;0.00;0.62;;;;;23.10;1.00;;;;;;2272631;61;1745;-87
2022/06/30 04:28:17;17807.00;0.06;31.47;0.00;0.00;0.62;;;;;23.00;1.00;;;;;;2272786;61;1414;-86
2022/06/30 04:33:29;0.00;0.00;0.62;0.00;0.00;0.62;;;;;22.70;1.00;;;;;;2273021;61;673;-86
2022/06/30 04:35:56;15675.00;0.05;27.78;0.00;0.00;0.62;;;;;22.60;1.00;;;;;;2272949;61;1083;-90
2022/06/30 04:38:23;27499.00;0.09;48.25;0.00;0.00;0.62;;;;;22.90;1.00;;;;;;2277901;40;3628;-88
2022/06/30 04:43:34;309427.00;1.03;534.12;84105.00;0.28;146.13;;;;;23.20;1.00;;;;;;2272945;61;695;-87
2022/06/30 04:46:01;92313.00;0.31;160.30;0.00;0.00;0.62;;;;;23.50;1.00;;;;;;2272892;61;1659;-88
2022/06/30 04:48:30;0.00;0.00;0.62;0.00;0.00;0.62;;;;;23.60;1.00;;;;;;2272936;61;1460;-86
2022/06/30 04:50:57;144620.00;0.48;250.53;0.00;0.00;0.62;;;;;23.70;1.00;;;;;;2272981;61;1102;-88
2022/06/30 04:53:24;101771.00;0.34;176.63;0.00;0.00;0.62;;;;;23.50;1.00;;;;;;2272935;61;1234;-89
2022/06/30 04:55:51;222512.00;0.74;384.67;13714.00;0.05;24.38;;;;;23.50;1.00;;;;;;2272849;61;938;-90
2022/06/30 04:58:18;140397.00;0.47;243.26;0.00;0.00;0.62;;;;;23.70;1.00;;;;;;2272788;61;1924;-88
2022/06/30 05:00:45;58046.00;0.19;101.10;0.00;0.00;0.62;;;;;23.80;1.00;;;;;;2272910;61;1580;-87
2022/06/30 05:03:12;0.00;0.00;0.62;0.00;0.00;0.62;;;;;24.10;1.00;;;;;;2272873;61;1061;-86
2022/06/30 05:05:40;0.00;0.00;0.62;0.00;0.00;0.62;;;;;24.00;1.00;;;;;;2272896;61;1165;-89
2022/06/30 05:08:07;49099.00;0.16;85.63;0.00;0.00;0.62;;;;;23.90;1.00;;;;;;2272861;61;1688;-86
2022/06/30 05:10:34;77246.00;0.26;134.28;0.00;0.00;0.62;;;;;23.80;1.00;;;;;;2272778;61;1011;-88
2022/06/30 05:13:01;194301.00;0.65;336.11;15773.00;0.05;27.95;;;;;24.00;1.00;;;;;;2272967;61;928;-87
2022/06/30 05:15:28;142610.00;0.48;247.07;0.00;0.00;0.62;;;;;23.80;1.00;;;;;;2272824;61;1031;-87
2022/06/30 05:17:55;168061.00;0.56;290.93;36138.00;0.12;63.21;;;;;24.00;1.00;;;;;;2272824;61;1911;-90
2022/06/30 05:20:22;289757.00;0.97;500.31;60063.00;0.20;104.59;;;;;24.00;1.00;;;;;;2272678;61;1433;-86
2022/06/30 05:22:51;0.00;0.00;0.62;0.00;0.00;0.62;;;;;24.00;1.00;;;;;;2272791;61;1074;-88
2022/06/30 05:28:03;254130.00;0.85;439.05;38177.00;0.13;66.73;;;;;24.50;1.00;;;;;;2272792;61;1389;-86
2022/06/30 05:30:30;4361.00;0.01;8.18;0.00;0.00;0.62;;;;;24.50;1.00;;;;;;2272611;61;1096;-87
2022/06/30 05:32:57;24468.00;0.08;43.01;0.00;0.00;0.62;;;;;24.00;1.00;;;;;;2272741;61;1530;-86
2022/06/30 05:35:24;0.00;0.00;0.62;0.00;0.00;0.62;;;;;24.00;1.00;;;;;;2272680;61;1165;-85
2022/06/30 05:37:53;0.00;0.00;0.62;0.00;0.00;0.62;;;;;24.20;1.00;;;;;;2272608;61;1163;-88
2022/06/30 05:40:20;50089.00;0.17;87.34;0.00;0.00;0.62;;;;;24.50;1.00;;;;;;2272574;61;1796;-86
2022/06/30 05:42:46;164320.00;0.55;284.48;0.00;0.00;0.62;;;;;24.70;1.00;;;;;;2272698;61;1020;-88
2022/06/30 05:45:13;92769.00;0.31;161.09;0.00;0.00;0.62;;;;;25.80;1.00;;;;;;2272633;61;1643;-88
2022/06/30 05:47:47;35236.00;0.12;61.65;0.00;0.00;0.62;;;;;27.30;1.00;;;;;;2272662;61;1043;-88
2022/06/30 05:50:14;67928.00;0.23;118.18;0.00;0.00;0.62;;;;;28.50;1.00;;;;;;2272522;61;1391;-88
2022/06/30 05:52:41;14123.00;0.05;25.09;0.00;0.00;0.62;;;;;30.30;1.00;;;;;;2272561;61;1589;-87
2022/06/30 05:55:10;0.00;0.00;0.62;0.00;0.00;0.62;;;;;31.50;1.00;;;;;;2272665;61;1091;-86
2022/06/30 05:57:50;0.00;0.00;0.62;0.00;0.00;0.62;;;;;32.80;1.00;;;;;;2272552;61;1062;-87
2022/06/30 06:00:18;123394.00;0.41;213.94;47742.00;0.16;83.28;;;;;33.60;1.00;;;;;;2272201;61;2033;-87
2022/06/30 06:02:44;43986.00;0.15;76.78;0.00;0.00;0.62;;;;;34.30;1.00;;;;;;2272662;61;1036;-88
2022/06/30 06:05:12;209319.00;0.70;361.96;0.00;0.00;0.62;;;;;35.40;1.00;;;;;;2272631;61;1068;-87
2022/06/30 06:07:39;0.00;0.00;0.62;0.00;0.00;0.62;;;;;35.70;1.00;;;;;;2272665;61;1124;-87
2022/06/30 06:10:06;0.00;0.00;0.62;0.00;0.00;0.62;;;;;36.00;1.00;;;;;;2272645;61;1332;-87
2022/06/30 06:12:35;321479.00;1.07;554.84;69772.00;0.23;121.37;;;;;36.30;1.00;;;;;;2272610;61;1541;-87
2022/06/30 06:15:02;18255.00;0.06;32.25;0.00;0.00;0.62;;;;;36.70;1.00;;;;;;2272620;61;1144;-87
2022/06/30 06:17:30;0.00;0.00;0.62;0.00;0.00;0.62;;;;;37.10;1.00;;;;;;2272608;61;1162;-88
2022/06/30 06:19:57;0.00;0.00;0.62;0.00;0.00;0.62;;;;;37.70;1.00;;;;;;2272610;61;1914;-87
2022/06/30 06:22:24;147318.00;0.49;255.19;0.00;0.00;0.62;;;;;37.30;1.00;;;;;;2272572;61;999;-87
2022/06/30 06:24:51;151418.00;0.50;262.25;63999.00;0.21;111.39;;;;;37.40;1.00;;;;;;2272592;61;1083;-87
2022/06/30 06:27:18;145957.00;0.49;252.84;12559.00;0.04;22.38;;;;;37.40;1.00;;;;;;2272539;61;1138;-86
2022/06/30 06:29:46;0.00;0.00;0.62;0.00;0.00;0.62;;;;;38.20;1.00;;;;;;2272564;61;1387;-89
2022/06/30 06:32:13;11602.00;0.04;20.72;0.00;0.00;0.62;;;;;37.90;1.00;;;;;;2272611;61;1039;-87
2022/06/30 06:34:39;0.00;0.00;0.62;0.00;0.00;0.62;;;;;38.20;1.00;;;;;;2272464;61;1158;-87
2022/06/30 06:37:06;0.00;0.00;0.62;0.00;0.00;0.62;;;;;38.70;1.00;;;;;;2272532;61;1118;-88
2022/06/30 06:39:33;28719.00;0.10;50.37;0.00;0.00;0.62;;;;;38.70;1.00;;;;;;2272382;61;2028;-87
2022/06/30 06:42:00;237414.00;0.79;410.30;0.00;0.00;0.62;;;;;39.20;1.00;;;;;;2272150;61;933;-86
2022/06/30 06:44:27;0.00;0.00;0.62;0.00;0.00;0.62;;;;;39.50;1.00;;;;;;2272055;61;1048;-85
2022/06/30 06:46:55;117874.00;0.39;204.42;53357.00;0.18;92.99;;;;;39.10;1.00;;;;;;2272312;61;1104;-87
2022/06/30 06:49:22;35484.00;0.12;62.07;0.00;0.00;0.62;;;;;39.20;1.00;;;;;;2272240;61;1400;-86
2022/06/30 06:51:49;126882.00;0.42;219.95;38847.00;0.13;67.89;;;;;39.80;1.00;;;;;;2272430;61;1099;-88
2022/06/30 06:54:16;25636.00;0.09;45.03;0.00;0.00;0.62;;;;;39.20;1.00;;;;;;2272518;61;1112;-86
2022/06/30 06:56:42;0.00;0.00;0.62;0.00;0.00;0.62;;;;;39.20;1.00;;;;;;2272462;61;1064;-88
2022/06/30 06:59:09;0.00;0.00;0.62;0.00;0.00;0.62;;;;;39.50;1.00;;;;;;2272144;61;2013;-87
2022/06/30 07:01:36;15972.00;0.05;28.29;0.00;0.00;0.62;;;;;40.70;1.00;;;;;;2272291;61;920;-86
2022/06/30 07:04:05;71345.00;0.24;124.08;0.00;0.00;0.62;;;;;40.60;1.00;;;;;;2272358;61;1078;-87
2022/06/30 07:06:33;344299.00;1.15;594.06;0.00;0.00;0.62;;;;;40.30;1.00;;;;;;2272393;61;1106;-87
2022/06/30 07:09:00;0.00;0.00;0.62;0.00;0.00;0.62;;;;;40.20;1.00;;;;;;2272423;61;1335;-88
2022/06/30 07:11:27;138297.00;0.46;239.64;0.00;0.00;0.62;;;;;39.90;1.00;;;;;;2271976;61;1073;-87
2022/06/30 07:13:53;0.00;0.00;0.62;0.00;0.00;0.62;;;;;39.80;1.00;;;;;;2272438;61;1583;-87
2022/06/30 07:16:20;62031.00;0.21;107.99;0.00;0.00;0.62;;;;;39.80;1.00;;;;;;2272438;61;1084;-86
2022/06/30 07:18:47;76717.00;0.26;133.37;11303.00;0.04;20.21;;;;;40.00;1.00;;;;;;2272437;61;1998;-86
2022/06/30 07:21:16;6726.00;0.02;12.28;0.00;0.00;0.62;;;;;40.50;1.00;;;;;;2272342;61;1142;-85
2022/06/30 07:23:43;37393.00;0.12;65.38;0.00;0.00;0.62;;;;;40.60;1.00;;;;;;2272436;61;1238;-87
2022/06/30 07:26:11;0.00;0.00;0.62;0.00;0.00;0.62;;;;;40.60;1.00;;;;;;2272415;61;1054;-87
2022/06/30 07:28:38;89098.00;0.30;154.75;3472.00;0.01;6.64;;;;;40.80;1.00;;;;;;2272451;61;1301;-86
2022/06/30 07:31:05;0.00;0.00;0.62;0.00;0.00;0.62;;;;;41.10;1.00;;;;;;2272398;61;1151;-87
2022/06/30 07:33:31;0.00;0.00;0.62;0.00;0.00;0.62;;;;;40.50;1.00;;;;;;2272460;61;1644;-85
2022/06/30 07:35:59;0.00;0.00;0.62;0.00;0.00;0.62;;;;;40.10;1.00;;;;;;2272456;61;1030;-86
2022/06/30 07:38:27;384401.00;1.28;662.99;73758.00;0.25;128.25;;;;;40.70;1.00;;;;;;2272274;61;1219;-86
2022/06/30 07:40:54;159148.00;0.53;275.57;0.00;0.00;0.62;;;;;41.00;1.00;;;;;;2272404;61;2009;-87
2022/06/30 07:43:21;161969.00;0.54;280.43;0.00;0.00;0.62;;;;;40.80;1.00;;;;;;2272357;61;2002;-87
2022/06/30 07:45:48;67618.00;0.23;117.64;0.00;0.00;0.62;;;;;40.30;1.00;;;;;;2272409;61;978;-85
2022/06/30 07:48:15;102498.00;0.34;177.88;0.00;0.00;0.62;;;;;40.20;1.00;;;;;;2272263;61;1359;-85
2022/06/30 07:50:42;9462.00;0.03;17.02;0.00;0.00;0.62;;;;;41.10;1.00;;;;;;2272161;61;1090;-85
2022/06/30 07:53:09;179066.00;0.60;309.88;57576.00;0.19;100.29;;;;;41.50;1.00;;;;;;2272086;61;1247;-86
2022/06/30 07:55:38;117733.00;0.39;204.17;21230.00;0.07;37.40;;;;;40.70;1.00;;;;;;2272314;61;1139;-87
2022/06/30 07:58:05;0.00;0.00;0.62;0.00;0.00;0.62;;;;;41.30;1.00;;;;;;2271797;61;1425;-87
2022/06/30 08:00:32;81495.00;0.27;141.62;0.00;0.00;0.62;;;;;40.50;1.00;;;;;;2272303;61;1907;-87
2022/06/30 08:02:59;28797.00;0.10;50.50;0.00;0.00;0.62;;;;;40.20;1.00;;;;;;2272332;61;1594;-86
2022/06/30 08:05:26;0.00;0.00;0.62;0.00;0.00;0.62;;;;;41.10;1.00;;;;;;2272293;61;1055;-87
2022/06/30 08:07:53;125866.00;0.42;218.20;0.00;0.00;0.62;;;;;41.30;1.00;;;;;;2272288;61;1118;-86
2022/06/30 08:10:20;96205.00;0.32;167.02;0.00;0.00;0.62;;;;;40.90;1.00;;;;;;2272233;61;1374;-86
2022/06/30 08:12:48;116835416.00;389.45;64602084.00;0.00;0.00;0.62;;;;;40.50;1.00;;;;;;2272304;61;1096;-88
2022/06/30 08:15:15;305457.00;1.02;527.30;57985.00;0.19;100.99;;;;;40.70;1.00;;;;;;2272206;61;1161;-88
2022/06/30 08:17:42;0.00;0.00;0.62;0.00;0.00;0.62;;;;;40.50;1.00;;;;;;2272441;61;1037;-87
2022/06/30 08:20:10;0.00;0.00;0.62;0.00;0.00;0.62;;;;;41.10;1.00;;;;;;2272385;61;1915;-88
2022/06/30 08:22:37;371.00;0.00;1.26;0.00;0.00;0.62;;;;;41.00;1.00;;;;;;2272363;61;1123;-89
2022/06/30 08:25:05;63285.00;0.21;110.16;0.00;0.00;0.62;;;;;40.70;1.00;;;;;;2272287;61;1044;-89
2022/06/30 08:27:32;24339.00;0.08;42.78;0.00;0.00;0.62;;;;;40.20;1.00;;;;;;2272183;61;1003;-88
2022/06/30 08:30:01;0.00;0.00;0.62;0.00;0.00;0.62;;;;;39.90;1.00;;;;;;2272226;61;1510;-88
2022/06/30 08:32:27;54690.00;0.18;95.30;0.00;0.00;0.62;;;;;40.00;1.00;;;;;;2272315;61;1208;-88
2022/06/30 08:34:54;0.00;0.00;0.62;0.00;0.00;0.62;;;;;39.80;1.00;;;;;;2272135;61;1034;-88
2022/06/30 08:37:21;40994.00;0.14;71.61;0.00;0.00;0.62;;;;;39.80;1.00;;;;;;2272405;61;2165;-88
2022/06/30 08:42:46;0.00;0.00;0.62;0.00;0.00;0.62;;;;;39.20;1.00;;;;;;2267582;61;1464;-85
2022/06/30 08:45:17;138493.00;0.46;239.97;0.00;0.00;0.62;;;;;39.30;1.00;;;;;;2271286;61;1089;-86
2022/06/30 08:47:45;137666.00;0.46;238.55;0.00;0.00;0.62;;;;;40.00;1.00;;;;;;2272192;61;1108;-86
2022/06/30 08:50:14;45636.00;0.15;79.64;0.00;0.00;0.62;;;;;40.10;1.00;;;;;;2272115;61;1439;-86
2022/06/30 08:52:45;14710.00;0.05;26.11;0.00;0.00;0.62;;;;;39.30;1.00;;;;;;2272399;61;1518;-87
2022/06/30 08:55:14;103195.00;0.34;179.09;0.00;0.00;0.62;;;;;38.90;1.00;;;;;;2272332;61;1224;-86
2022/06/30 08:57:44;32087.00;0.11;56.20;0.00;0.00;0.62;;;;;38.00;1.00;;;;;;2272385;61;1121;-85
2022/06/30 09:00:15;46143.00;0.15;80.52;0.00;0.00;0.62;;;;;38.00;1.00;;;;;;2272127;61;2026;-86
2022/06/30 09:02:42;12954.00;0.04;23.07;0.00;0.00;0.62;;;;;38.00;1.00;;;;;;2272273;61;1627;-88
2022/06/30 09:05:10;0.00;0.00;0.62;0.00;0.00;0.62;;;;;38.20;1.00;;;;;;2272871;61;1656;-86
2022/06/30 09:07:37;326817.00;1.09;564.02;127963.00;0.43;221.82;;;;;38.50;1.00;;;;;;2272731;61;1118;-85
2022/06/30 09:10:06;70709.00;0.24;122.99;0.00;0.00;0.62;;;;;38.80;1.00;;;;;;2272944;61;1394;-86
2022/06/30 09:12:33;41835.00;0.14;73.06;0.00;0.00;0.62;;;;;38.60;1.00;;;;;;2272828;61;1028;-85
2022/06/30 09:15:01;402648.00;1.34;694.36;155073.00;0.52;268.55;;;;;38.40;1.00;;;;;;2272724;61;1148;-85
2022/06/30 09:17:30;68360.00;0.23;118.93;0.00;0.00;0.62;;;;;38.30;1.00;;;;;;2272982;61;1136;-87
2022/06/30 09:20:00;218707.00;0.73;378.12;78975.00;0.26;137.27;;;;;38.60;1.00;;;;;;2272637;61;2016;-85
2022/06/30 09:22:29;136739.00;0.46;236.95;71837.00;0.24;124.93;;;;;38.30;1.00;;;;;;2272908;61;1008;-86
2022/06/30 09:25:05;0.00;0.00;0.62;0.00;0.00;0.62;;;;;37.60;1.00;;;;;;2273015;61;1546;-87
2022/06/30 09:27:33;87503.00;0.29;152.00;0.00;0.00;0.62;;;;;36.40;1.00;;;;;;2273035;61;1132;-84
2022/06/30 09:30:04;9090.00;0.03;16.37;0.00;0.00;0.62;;;;;35.60;1.00;;;;;;2272927;61;1352;-86
2022/06/30 09:32:45;0.00;0.00;0.62;0.00;0.00;0.62;;;;;34.70;1.00;;;;;;2272984;61;1139;-86
2022/06/30 09:35:12;107790.00;0.36;187.02;0.00;0.00;0.62;;;;;34.50;1.00;;;;;;2272798;61;1026;-86
2022/06/30 09:37:40;0.00;0.00;0.62;0.00;0.00;0.62;;;;;34.60;1.00;;;;;;2272903;61;1116;-87
2022/06/30 09:40:09;282033.00;0.94;487.03;113616.00;0.38;197.07;;;;;34.60;1.00;;;;;;2272483;61;1998;-87
2022/06/30 09:42:38;105491.00;0.35;183.05;0.00;0.00;0.62;;;;;34.50;1.00;;;;;;2272904;61;2069;-87
2022/06/30 09:45:08;0.00;0.00;0.62;0.00;0.00;0.62;;;;;34.00;1.00;;;;;;2272925;61;1540;-89
2022/06/30 09:47:37;0.00;0.00;0.62;0.00;0.00;0.62;;;;;33.40;1.00;;;;;;2272913;61;2366;-84
2022/06/30 09:50:07;79810.00;0.27;138.71;0.00;0.00;0.62;;;;;33.70;1.00;;;;;;2272954;61;1510;-84
2022/06/30 09:52:35;3481.00;0.01;6.65;0.00;0.00;0.62;;;;;34.20;1.00;;;;;;2272888;61;990;-88
2022/06/30 09:55:05;357490.00;1.19;616.73;22814.00;0.08;40.14;;;;;34.30;1.00;;;;;;2272652;61;1613;-89
2022/06/30 09:57:37;45589.00;0.15;79.56;0.00;0.00;0.62;;;;;33.80;1.00;;;;;;2272734;61;2363;-89
2022/06/30 10:00:08;376852.00;1.26;650.01;0.00;0.00;0.62;;;;;33.10;1.00;;;;;;2272824;61;2006;-86
2022/06/30 10:02:39;367917.00;1.23;634.66;76214.00;0.25;132.50;;;;;33.00;1.00;;;;;;2272879;61;1127;-89
2022/06/30 10:05:08;60823.00;0.20;105.90;0.00;0.00;0.62;;;;;33.50;1.00;;;;;;2272836;61;995;-89
2022/06/30 10:07:38;104794.00;0.35;181.85;39076.00;0.13;68.29;;;;;33.40;1.00;;;;;;2272860;61;1023;-87
2022/06/30 10:10:08;17153.00;0.06;30.34;0.00;0.00;0.62;;;;;33.00;1.00;;;;;;2272776;61;1375;-87
2022/06/30 10:12:36;56972.00;0.19;99.24;0.00;0.00;0.62;;;;;33.00;1.00;;;;;;2272727;61;1017;-84
2022/06/30 10:15:06;0.00;0.00;0.62;0.00;0.00;0.62;;;;;33.10;1.00;;;;;;2272687;61;1092;-86
2022/06/30 10:17:39;39853.00;0.13;69.63;0.00;0.00;0.62;;;;;33.40;1.00;;;;;;2272574;61;1740;-86
2022/06/30 10:20:07;155066.00;0.52;268.54;35640.00;0.12;62.34;;;;;33.70;1.00;;;;;;2272532;61;1927;-85
2022/06/30 10:22:34;327350.00;1.09;564.93;32366.00;0.11;56.68;;;;;33.90;1.00;;;;;;2272726;61;1036;-86
2022/06/30 10:25:01;0.00;0.00;0.62;0.00;0.00;0.62;;;;;34.10;1.00;;;;;;2272853;61;1154;-87